Observations for BIRMINGHAM AIRPORT, United Kingdom (EGBB)

EGBB 211750Z 15006KT 2000 BR OVC002 03/03 Q1004 
EGBB 211720Z 17006KT 5000 -RA OVC003 03/03 Q1004
EGBB 211650Z 16006KT 4400 -RADZ OVC003 03/03 Q1005  
EGBB 211620Z 16007KT 3000 -RADZ OVC003 02/02 Q1005  
EGBB 211550Z 16009KT 5000 -RADZ BKN004 02/02 Q1005 RERA REDZ
EGBB 211520Z 16010KT 3500 RADZ BKN005 02/02 Q1006   
EGBB 211450Z 16011KT 5000 -RADZ OVC004 02/02 Q1006  
EGBB 211420Z 15013KT 4500 -RADZ OVC004 01/01 Q1007  
EGBB 211350Z 15013KT 3400 -RADZ OVC004 01/01 Q1007  
EGBB 211320Z 15013KT 5000 -RADZ OVC004 01/01 Q1008 R15/CLRD//   
EGBB 211320Z 15013KT 5000 -RADZ OVC004 01/01 Q1008 R15/D
EGBB 211250Z 15012KT 3300 -RADZ OVC005 01/01 Q1009 R15/6902//   
EGBB 211220Z 14012KT 3300 -RADZ OVC004 01/01 Q1010 RESG R15/6902//  
EGBB 211150Z 14011KT 3200 SG OVC004 00/00 Q1011 R15/6903//  
EGBB 211120Z 14010KT 3000 -SG BKN003 BKN005 00/00 Q1011 RESN R15/5902// 
EGBB 211050Z 14010KT 0800 R15/P1500 +SN OVC003 00/00 Q1012  
EGBB 211020Z 14011KT 1300 R15/P1500 SN OVC003 00/00 Q1012   
EGBB 210950Z 14009KT 1600 SN BKN003 00/00 Q1012 RESN
EGBB 210920Z 14008KT 1300 R15/P1500 SN OVC002 00/00 Q1012 RESN  
EGBB 210850Z 14007KT 0700 R15/1400 SN OVC003 00/00 Q1013 RESN   
EGBB 210820Z 14006KT 0900 R15/P1500 SN OVC002 00/00 Q1013 RERA  
EGBB 210750Z 15005KT 1300 R15/P1500 RA OVC002 01/01 Q1014 RESN  
EGBB 210720Z 14005KT 2200 BR OVC003 01/01 Q1014 
EGBB 210650Z 14003KT 2500 BR BKN003 OVC021 01/01 Q1013  
EGBB 210620Z 15004KT 2500 BR BKN003 OVC035 01/01 Q1013  
EGBB 210550Z VRB02KT 3000 BR OVC003 01/01 Q1013 
EGBB 210520Z 22004KT 180V260 2500 BR OVC003 01/01 Q1013 
EGBB 210450Z 18004KT 2500 BR OVC003 01/01 Q1013 
EGBB 210420Z 18003KT 3000 BR BKN004 BKN041 01/01 Q1013  
EGBB 210350Z 16003KT 4000 BR BKN004 BKN048 01/01 Q1013  
EGBB 210320Z 20004KT 180V240 4000 BR OVC006 01/01 Q1013 
EGBB 210250Z VRB03KT 4000 BR SCT004 OVC007 01/01 Q1013  
EGBB 210220Z 17002KT 2400 BR OVC006 01/01 Q1013 
EGBB 210150Z 22002KT 3000 BR OVC006 01/01 Q1013 
EGBB 210120Z VRB03KT 3400 BR OVC006 01/01 Q1013 
EGBB 210050Z 29002KT 4100 BR OVC006 01/01 Q1012 
EGBB 210020Z 32006KT 2600 BR OVC006 01/00 Q1012 
EGBB 202350Z 30006KT 3500 BR OVC006 01/01 Q1011 
EGBB 202320Z 31006KT 3500 BR OVC006 01/01 Q1011 
EGBB 202250Z 33005KT 3000 BR OVC005 01/01 Q1010 
EGBB 202220Z 33005KT 2500 BR OVC003 01/01 Q1010 
EGBB 202150Z 31007KT 2200 BR OVC003 01/01 Q1009 
EGBB 202120Z 32007KT 2200 BR OVC003 01/01 Q1009 
EGBB 202050Z 29005KT 4000 BR BKN004 01/01 Q1008 
EGBB 202020Z 28004KT 5000 BR SCT005 01/01 Q1007 
EGBB 201950Z VRB02KT 6000 FEW005 01/00 Q1006
EGBB 201920Z 28002KT 6000 FEW005 01/01 Q1006
EGBB 201850Z 32004KT 6000 BKN005 02/01 Q1005
EGBB 201820Z 34006KT 6000 BKN008 02/02 Q1004
EGBB 201750Z 36006KT 7000 BKN009 02/02 Q1004
EGBB 201720Z 36005KT 320V030 5000 BR OVC006 02/02 Q1003